createdAt,value
2022-12-14T00:01:28.218Z,-2.58
2022-12-14T00:03:55.864Z,-2.48
2022-12-14T00:06:25.546Z,-2.46
2022-12-14T00:08:54.287Z,-2.46
2022-12-14T00:11:22.612Z,-2.46
2022-12-14T00:13:54.832Z,-2.46
2022-12-14T00:16:22.431Z,-2.46
2022-12-14T00:18:51.395Z,-2.57
2022-12-14T00:21:18.724Z,-2.57
2022-12-14T00:23:46.804Z,-2.59
2022-12-14T00:26:16.615Z,-2.58
2022-12-14T00:28:45.263Z,-2.62
2022-12-14T00:31:13.096Z,-2.64
2022-12-14T00:33:40.433Z,-2.61
2022-12-14T00:36:09.198Z,-2.65
2022-12-14T00:38:36.874Z,-2.67
2022-12-14T00:41:03.981Z,-2.70
2022-12-14T00:43:31.125Z,-2.64
2022-12-14T00:45:58.084Z,-2.64
2022-12-14T00:48:26.290Z,-2.69
2022-12-14T00:50:54.967Z,-2.68
2022-12-14T00:53:22.947Z,-2.74
2022-12-14T00:55:50.528Z,-2.89
2022-12-14T00:58:20.551Z,-2.88
2022-12-14T01:00:48.419Z,-2.92
2022-12-14T01:03:15.739Z,-2.90
2022-12-14T01:05:49.293Z,-2.81
2022-12-14T01:08:16.318Z,-2.70
2022-12-14T01:10:43.008Z,-2.77
2022-12-14T01:13:11.322Z,-2.89
2022-12-14T01:15:38.104Z,-2.91
2022-12-14T01:18:05.242Z,-2.93
2022-12-14T01:20:31.903Z,-3.01
2022-12-14T01:22:58.868Z,-2.95
2022-12-14T01:25:26.065Z,-2.88
2022-12-14T01:27:52.721Z,-2.90
2022-12-14T01:30:19.571Z,-2.96
2022-12-14T01:32:47.331Z,-2.92
2022-12-14T01:35:14.225Z,-3.01
2022-12-14T01:37:40.906Z,-2.93
2022-12-14T01:40:08.319Z,-2.86
2022-12-14T01:42:36.623Z,-2.80
2022-12-14T01:45:05.625Z,-2.77
2022-12-14T01:47:41.775Z,-2.80
2022-12-14T01:50:08.554Z,-2.86
2022-12-14T01:52:47.006Z,-2.84
2022-12-14T01:55:37.797Z,-2.94
2022-12-14T01:58:10.379Z,-2.94
2022-12-14T02:00:37.217Z,-2.89
2022-12-14T02:03:12.715Z,-2.85
2022-12-14T02:05:47.277Z,-2.79
2022-12-14T02:08:15.587Z,-2.78
2022-12-14T02:10:44.191Z,-2.75
2022-12-14T02:13:23.337Z,-2.58
2022-12-14T02:15:51.269Z,-2.59
2022-12-14T02:18:24.293Z,-2.70
2022-12-14T02:21:12.379Z,-2.63
2022-12-14T02:24:12.601Z,-2.67
2022-12-14T02:27:15.457Z,-2.70
2022-12-14T02:30:07.545Z,-2.66
2022-12-14T02:32:55.238Z,-2.68
2022-12-14T02:35:33.142Z,-2.62
2022-12-14T02:38:08.379Z,-2.58
2022-12-14T02:40:49.928Z,-2.68
2022-12-14T02:43:41.598Z,-2.64
2022-12-14T02:46:44.085Z,-2.58
2022-12-14T02:49:41.807Z,-2.59
2022-12-14T02:52:24.949Z,-2.54
2022-12-14T02:55:07.082Z,-2.59
2022-12-14T02:57:53.524Z,-2.53
2022-12-14T03:00:20.427Z,-2.52
2022-12-14T03:02:49.079Z,-2.51
2022-12-14T03:05:15.958Z,-2.48
2022-12-14T03:07:55.957Z,-2.43
2022-12-14T03:10:37.813Z,-2.57
2022-12-14T03:13:13.223Z,-2.76
2022-12-14T03:15:43.365Z,-2.85
2022-12-14T03:18:14.355Z,-2.85
2022-12-14T03:20:42.843Z,-2.82
2022-12-14T03:23:13.312Z,-2.81
2022-12-14T03:25:52.894Z,-2.77
2022-12-14T03:28:30.761Z,-2.81
2022-12-14T03:31:06.073Z,-2.79
2022-12-14T03:33:35.636Z,-2.76
2022-12-14T03:36:30.121Z,-2.85
2022-12-14T03:39:00.473Z,-2.80
2022-12-14T03:42:05.077Z,-2.77
2022-12-14T03:44:54.124Z,-2.65
2022-12-14T03:47:49.975Z,-2.66
2022-12-14T03:50:23.086Z,-2.77
2022-12-14T03:52:55.527Z,-2.70
2022-12-14T03:55:49.541Z,-2.71
2022-12-14T03:58:32.926Z,-2.74
2022-12-14T04:01:11.598Z,-2.75
2022-12-14T04:03:50.511Z,-2.63
2022-12-14T04:06:46.520Z,-2.55
2022-12-14T04:09:27.465Z,-2.66
2022-12-14T04:12:35.860Z,-2.77
2022-12-14T04:15:36.928Z,-2.70
2022-12-14T04:18:26.279Z,-2.71
2022-12-14T04:20:59.303Z,-2.64
2022-12-14T04:23:52.895Z,-2.62
2022-12-14T04:26:24.144Z,-2.58
2022-12-14T04:29:21.242Z,-2.52
2022-12-14T04:31:58.053Z,-2.59
2022-12-14T04:34:27.271Z,-2.57
2022-12-14T04:36:57.669Z,-2.64
2022-12-14T04:39:38.854Z,-2.56
2022-12-14T04:42:08.396Z,-2.61
2022-12-14T04:44:42.222Z,-2.52
2022-12-14T04:47:12.520Z,-2.52
2022-12-14T04:49:40.930Z,-2.66
2022-12-14T04:52:36.299Z,-2.67
2022-12-14T04:55:21.282Z,-2.62
2022-12-14T04:57:59.229Z,-2.69
2022-12-14T05:00:27.551Z,-2.78
2022-12-14T05:03:02.931Z,-2.82
2022-12-14T05:05:35.317Z,-2.76
2022-12-14T05:08:30.515Z,-2.73
2022-12-14T05:11:31.771Z,-2.77
2022-12-14T05:13:54.685Z,-2.87
2022-12-14T05:16:24.342Z,-2.93
2022-12-14T05:18:51.115Z,-2.96
2022-12-14T05:21:36.008Z,-3.01
2022-12-14T05:24:04.265Z,-2.96
2022-12-14T05:26:31.670Z,-3.02
2022-12-14T05:28:58.318Z,-3.10
2022-12-14T05:31:25.547Z,-3.18
2022-12-14T05:33:52.198Z,-3.17
2022-12-14T05:36:19.719Z,-3.25
2022-12-14T05:38:46.817Z,-3.29
2022-12-14T05:41:14.269Z,-3.30
2022-12-14T05:43:41.557Z,-3.29
2022-12-14T05:46:09.957Z,-3.37
2022-12-14T05:48:36.841Z,-3.45
2022-12-14T05:51:08.445Z,-3.51
2022-12-14T05:53:36.654Z,-3.47
2022-12-14T05:56:04.354Z,-3.48
2022-12-14T05:58:30.955Z,-3.51
2022-12-14T06:01:05.839Z,-3.57
2022-12-14T06:03:32.610Z,-3.51
2022-12-14T06:06:11.679Z,-3.50
2022-12-14T06:08:41.081Z,-3.50
2022-12-14T06:11:13.917Z,-3.66
2022-12-14T06:13:41.540Z,-3.61
2022-12-14T06:16:20.124Z,-3.58
2022-12-14T06:18:49.007Z,-3.56
2022-12-14T06:21:17.425Z,-3.60
2022-12-14T06:23:44.722Z,-3.52
2022-12-14T06:26:12.622Z,-3.58
2022-12-14T06:28:39.979Z,-3.61
2022-12-14T06:31:08.249Z,-3.70
2022-12-14T06:33:35.688Z,-3.72
2022-12-14T06:36:03.114Z,-3.70
2022-12-14T06:38:30.177Z,-3.73
2022-12-14T06:40:56.920Z,-3.81
2022-12-14T06:43:27.226Z,-3.87
2022-12-14T06:45:54.768Z,-3.88
2022-12-14T06:48:21.515Z,-3.87
2022-12-14T06:50:48.258Z,-3.81
2022-12-14T06:53:14.927Z,-3.74
2022-12-14T06:55:41.586Z,-3.78
2022-12-14T06:58:13.056Z,-3.80
2022-12-14T07:00:39.845Z,-3.82
2022-12-14T07:03:06.599Z,-3.82
2022-12-14T07:05:33.439Z,-3.94
2022-12-14T07:08:00.104Z,-4.10
2022-12-14T07:10:26.800Z,-4.12
2022-12-14T07:12:53.675Z,-4.15
2022-12-14T07:15:20.359Z,-4.21
2022-12-14T07:17:47.051Z,-4.19
2022-12-14T07:20:13.664Z,-4.20
2022-12-14T07:22:40.669Z,-4.41
2022-12-14T07:25:07.776Z,-4.43
2022-12-14T07:27:34.463Z,-4.39
2022-12-14T07:30:01.172Z,-4.38
2022-12-14T07:32:27.824Z,-4.32
2022-12-14T07:34:54.697Z,-4.25
2022-12-14T07:37:21.315Z,-4.20
2022-12-14T07:39:48.029Z,-4.19
2022-12-14T07:42:14.730Z,-4.21
2022-12-14T07:44:41.406Z,-4.22
2022-12-14T07:47:11.433Z,-4.25
2022-12-14T07:49:40.925Z,-4.22
2022-12-14T07:52:07.614Z,-4.23
2022-12-14T07:54:35.924Z,-4.26
2022-12-14T07:57:05.736Z,-4.26
2022-12-14T07:59:32.670Z,-4.39
2022-12-14T08:01:59.408Z,-4.32
2022-12-14T08:04:26.291Z,-4.30
2022-12-14T08:06:53.124Z,-4.30
2022-12-14T08:09:20.345Z,-4.29
2022-12-14T08:11:47.465Z,-4.36
2022-12-14T08:14:17.441Z,-4.33
2022-12-14T08:16:45.358Z,-4.39
2022-12-14T08:19:12.341Z,-4.35
2022-12-14T08:21:40.339Z,-4.27
2022-12-14T08:24:07.609Z,-4.33
2022-12-14T08:26:35.987Z,-4.30
2022-12-14T08:29:04.243Z,-4.31
2022-12-14T08:31:31.140Z,-4.32
2022-12-14T08:34:01.672Z,-4.33
2022-12-14T08:36:34.467Z,-4.23
2022-12-14T08:39:06.764Z,-4.25
2022-12-14T08:41:33.942Z,-4.16
2022-12-14T08:44:02.635Z,-4.05
2022-12-14T08:46:31.109Z,-3.97
2022-12-14T08:48:58.155Z,-4.09
2022-12-14T08:51:26.800Z,-4.01
2022-12-14T08:53:53.991Z,-4.01
2022-12-14T08:56:23.956Z,-3.92
2022-12-14T08:58:50.789Z,-3.83
2022-12-14T09:01:28.354Z,-3.70
2022-12-14T09:04:05.654Z,-3.68
2022-12-14T09:06:38.611Z,-3.52
2022-12-14T09:09:13.317Z,-3.50
2022-12-14T09:11:44.125Z,-3.50
2022-12-14T09:14:11.306Z,-3.41
2022-12-14T09:16:41.664Z,-3.40
2022-12-14T09:19:09.718Z,-3.28
2022-12-14T09:21:38.958Z,-3.25
2022-12-14T09:24:07.199Z,-3.23
2022-12-14T09:26:34.452Z,-3.17
2022-12-14T09:29:01.608Z,-3.14
2022-12-14T09:31:29.104Z,-3.13
2022-12-14T09:33:56.880Z,-3.04
2022-12-14T09:36:28.297Z,-2.96
2022-12-14T09:38:55.667Z,-2.84
2022-12-14T09:41:34.672Z,-2.77
2022-12-14T09:44:31.524Z,-2.72
2022-12-14T09:47:22.205Z,-2.66
2022-12-14T09:49:57.641Z,-2.74
2022-12-14T09:52:51.255Z,-2.72
2022-12-14T09:55:26.367Z,-2.74
2022-12-14T09:58:20.578Z,-2.70
2022-12-14T10:01:22.410Z,-2.69
2022-12-14T10:03:58.509Z,-2.72
2022-12-14T10:06:46.923Z,-2.62
2022-12-14T10:09:19.582Z,-2.52
2022-12-14T10:12:02.349Z,-2.51
2022-12-14T10:14:36.350Z,-2.39
2022-12-14T10:17:21.701Z,-2.26
2022-12-14T10:19:56.455Z,-2.06
2022-12-14T10:22:31.617Z,-2.03
2022-12-14T10:25:14.042Z,-1.91
2022-12-14T10:28:09.858Z,-1.86
2022-12-14T10:30:32.958Z,-1.86
2022-12-14T10:33:29.823Z,-1.85
2022-12-14T10:36:14.244Z,-1.75
2022-12-14T10:38:56.613Z,-1.74
2022-12-14T10:41:37.458Z,-1.75
2022-12-14T10:44:30.289Z,-1.63
2022-12-14T10:47:25.932Z,-1.59
2022-12-14T10:49:58.401Z,-1.59
2022-12-14T10:52:31.546Z,-1.63
2022-12-14T10:55:04.994Z,-1.63
2022-12-14T10:57:31.674Z,-1.58
2022-12-14T11:00:13.450Z,-1.56
2022-12-14T11:02:50.458Z,-1.48
2022-12-14T11:05:32.507Z,-1.38
2022-12-14T11:08:03.095Z,-1.30
2022-12-14T11:10:32.682Z,-1.27
2022-12-14T11:13:00.880Z,-1.19
2022-12-14T11:15:39.747Z,-1.13
2022-12-14T11:18:12.415Z,-0.99
2022-12-14T11:20:57.473Z,-0.87
2022-12-14T11:23:58.412Z,-0.79
2022-12-14T11:26:44.004Z,-0.65
2022-12-14T11:29:21.637Z,-0.69
2022-12-14T11:31:52.600Z,-0.66
2022-12-14T11:34:41.523Z,-0.67
2022-12-14T11:37:21.988Z,-0.72
2022-12-14T11:39:57.793Z,-0.64
2022-12-14T11:42:25.885Z,-0.60
2022-12-14T11:44:53.787Z,-0.54
2022-12-14T11:47:26.371Z,-0.51
2022-12-14T11:49:55.665Z,-0.57
2022-12-14T11:52:23.495Z,-0.58
2022-12-14T11:54:54.376Z,-0.61
2022-12-14T11:57:35.364Z,-0.61
2022-12-14T12:00:07.156Z,-0.56
2022-12-14T12:02:46.939Z,-0.51
2022-12-14T12:05:24.415Z,-0.53
2022-12-14T12:07:53.156Z,-0.56
2022-12-14T12:10:24.781Z,-0.48
2022-12-14T12:12:58.060Z,-0.47
2022-12-14T12:15:32.250Z,-0.43
2022-12-14T12:18:08.453Z,-0.40
2022-12-14T12:20:40.035Z,-0.37
2022-12-14T12:23:16.980Z,-0.34
2022-12-14T12:25:47.284Z,-0.43
2022-12-14T12:28:24.475Z,-0.41
2022-12-14T12:30:55.149Z,-0.43
2022-12-14T12:33:32.390Z,-0.49
2022-12-14T12:36:05.156Z,-0.49
2022-12-14T12:38:56.898Z,-0.45
2022-12-14T12:41:26.371Z,-0.44
2022-12-14T12:44:19.470Z,-0.47
2022-12-14T12:49:50.600Z,-0.47
2022-12-14T12:52:29.276Z,-0.40
2022-12-14T12:55:05.819Z,-0.40
2022-12-14T12:57:46.255Z,-0.39
2022-12-14T13:00:25.227Z,-0.36
2022-12-14T13:02:59.874Z,-0.37
2022-12-14T13:05:46.205Z,-0.38
2022-12-14T13:08:18.640Z,-0.40
2022-12-14T13:11:17.229Z,-0.44
2022-12-14T13:13:38.295Z,-0.35
2022-12-14T13:16:31.582Z,-0.43
2022-12-14T13:19:40.422Z,-0.37
2022-12-14T13:21:55.082Z,-0.38
2022-12-14T13:24:23.992Z,-0.23
2022-12-14T13:27:17.139Z,-0.31
2022-12-14T13:29:47.133Z,-0.29
2022-12-14T13:32:37.940Z,-0.24
2022-12-14T13:35:49.644Z,-0.13
2022-12-14T13:38:38.158Z,-0.19
2022-12-14T13:41:39.123Z,-0.19
2022-12-14T13:44:17.586Z,-0.20
2022-12-14T13:46:44.482Z,-0.22
2022-12-14T13:49:21.944Z,-0.23
2022-12-14T13:51:50.605Z,-0.35
2022-12-14T13:54:29.305Z,-0.34
2022-12-14T13:57:23.335Z,-0.35
2022-12-14T13:59:54.537Z,-0.39
2022-12-14T14:02:29.326Z,-0.30
2022-12-14T14:05:19.659Z,-0.30
2022-12-14T14:08:10.688Z,-0.37
2022-12-14T14:10:43.139Z,-0.35
2022-12-14T14:13:30.778Z,-0.36
2022-12-14T14:16:27.934Z,-0.35
2022-12-14T14:19:16.118Z,-0.33
2022-12-14T14:22:23.904Z,-0.37
2022-12-14T14:24:56.781Z,-0.47
2022-12-14T14:27:38.749Z,-0.46
2022-12-14T14:30:46.005Z,-0.50
2022-12-14T14:33:45.311Z,-0.56
2022-12-14T14:36:30.445Z,-0.58
2022-12-14T14:39:02.642Z,-0.66
2022-12-14T14:41:39.074Z,-0.68
2022-12-14T14:44:18.917Z,-0.69
2022-12-14T14:46:49.620Z,-0.72
2022-12-14T14:49:34.042Z,-0.64
2022-12-14T14:52:37.749Z,-0.65
2022-12-14T14:55:52.027Z,-0.63
2022-12-14T14:58:25.571Z,-0.68
2022-12-14T15:01:22.091Z,-0.70
2022-12-14T15:04:06.180Z,-0.71
2022-12-14T15:06:40.447Z,-0.71
2022-12-14T15:09:10.017Z,-0.77
2022-12-14T15:11:46.102Z,-0.81
2022-12-14T15:14:18.268Z,-0.79
2022-12-14T15:16:46.227Z,-0.86
2022-12-14T15:19:33.862Z,-0.84
2022-12-14T15:22:05.426Z,-0.88
2022-12-14T15:24:38.209Z,-0.87
2022-12-14T15:27:18.720Z,-0.95
2022-12-14T15:29:49.517Z,-0.96
2022-12-14T15:32:18.915Z,-1.02
2022-12-14T15:34:58.503Z,-1.06
2022-12-14T15:37:42.485Z,-1.06
2022-12-14T15:40:16.719Z,-1.06
2022-12-14T15:42:49.157Z,-1.11
2022-12-14T15:45:19.319Z,-1.14
2022-12-14T15:47:49.140Z,-1.20
2022-12-14T15:50:32.804Z,-1.23
2022-12-14T15:53:29.021Z,-1.28
2022-12-14T15:56:02.965Z,-1.27
2022-12-14T15:58:39.208Z,-1.29
2022-12-14T16:01:16.242Z,-1.30
2022-12-14T16:03:46.711Z,-1.33
2022-12-14T16:06:17.452Z,-1.36
2022-12-14T16:08:53.240Z,-1.38
2022-12-14T16:11:28.666Z,-1.42
2022-12-14T16:14:00.233Z,-1.45
2022-12-14T16:16:27.173Z,-1.49
2022-12-14T16:18:54.286Z,-1.51
2022-12-14T16:21:49.630Z,-1.51
2022-12-14T16:24:25.200Z,-1.58
2022-12-14T16:26:59.159Z,-1.61
2022-12-14T16:29:29.272Z,-1.63
2022-12-14T16:32:05.700Z,-1.57
2022-12-14T16:34:34.143Z,-1.56
2022-12-14T16:39:52.541Z,-1.76
2022-12-14T16:42:21.802Z,-1.74
2022-12-14T16:44:49.098Z,-1.77
2022-12-14T16:47:15.965Z,-1.81
2022-12-14T16:49:55.571Z,-1.78
2022-12-14T16:52:28.281Z,-1.80
2022-12-14T16:55:13.453Z,-1.87
2022-12-14T16:57:51.800Z,-1.88
2022-12-14T17:00:26.246Z,-1.87
2022-12-14T17:03:02.251Z,-1.91
2022-12-14T17:05:36.842Z,-1.91
2022-12-14T17:08:05.777Z,-1.96
2022-12-14T17:10:33.311Z,-1.95
2022-12-14T17:13:02.232Z,-2.00
2022-12-14T17:15:32.866Z,-1.97
2022-12-14T17:18:01.959Z,-1.96
2022-12-14T17:20:39.288Z,-2.04
2022-12-14T17:23:09.626Z,-2.02
2022-12-14T17:25:36.926Z,-2.07
2022-12-14T17:28:04.274Z,-2.08
2022-12-14T17:30:31.763Z,-2.12
2022-12-14T17:32:59.335Z,-2.17
2022-12-14T17:35:29.885Z,-2.14
2022-12-14T17:37:56.728Z,-2.16
2022-12-14T17:40:23.736Z,-2.17
2022-12-14T17:42:57.435Z,-2.19
2022-12-14T17:45:28.457Z,-2.21
2022-12-14T17:47:56.012Z,-2.21
2022-12-14T17:50:23.655Z,-2.19
2022-12-14T17:52:50.610Z,-2.19
2022-12-14T17:55:25.668Z,-2.24
2022-12-14T17:57:52.852Z,-2.21
2022-12-14T18:00:43.960Z,-2.24
2022-12-14T18:03:12.325Z,-2.22
2022-12-14T18:05:46.495Z,-2.20
2022-12-14T18:08:13.417Z,-2.27
2022-12-14T18:10:41.614Z,-2.32
2022-12-14T18:13:08.372Z,-2.35
2022-12-14T18:15:38.437Z,-2.34
2022-12-14T18:18:06.580Z,-2.36
2022-12-14T18:20:33.614Z,-2.38
2022-12-14T18:23:00.515Z,-2.42
2022-12-14T18:25:32.179Z,-2.42
2022-12-14T18:28:00.741Z,-2.44
2022-12-14T18:30:29.931Z,-2.44
2022-12-14T18:32:59.041Z,-2.47
2022-12-14T18:35:28.897Z,-2.41
2022-12-14T18:37:55.558Z,-2.42
2022-12-14T18:40:28.798Z,-2.42
2022-12-14T18:42:56.422Z,-2.48
2022-12-14T18:45:26.088Z,-2.52
2022-12-14T18:47:54.254Z,-2.51
2022-12-14T18:50:21.703Z,-2.47
2022-12-14T18:52:48.633Z,-2.47
2022-12-14T18:55:27.855Z,-2.51
2022-12-14T18:57:56.807Z,-2.57
2022-12-14T19:00:26.039Z,-2.58
2022-12-14T19:02:57.404Z,-2.61
2022-12-14T19:05:26.431Z,-2.64
2022-12-14T19:07:53.910Z,-2.70
2022-12-14T19:10:23.366Z,-2.78
2022-12-14T19:12:51.014Z,-2.85
2022-12-14T19:15:21.464Z,-2.84
2022-12-14T19:17:48.436Z,-2.83
2022-12-14T19:20:17.057Z,-2.83
2022-12-14T19:22:44.740Z,-2.85
2022-12-14T19:25:12.389Z,-2.84
2022-12-14T19:28:15.486Z,-2.83
2022-12-14T19:30:27.393Z,-2.84
2022-12-14T19:32:56.367Z,-2.85
2022-12-14T19:35:24.276Z,-2.88
2022-12-14T19:37:52.021Z,-2.91
2022-12-14T19:40:19.611Z,-3.00
2022-12-14T19:42:47.122Z,-3.09
2022-12-14T19:45:14.692Z,-3.16
2022-12-14T19:47:42.830Z,-3.23
2022-12-14T19:50:13.824Z,-3.32
2022-12-14T19:52:41.085Z,-3.36
2022-12-14T19:55:08.592Z,-3.43
2022-12-14T19:57:35.491Z,-3.35
2022-12-14T20:00:03.919Z,-3.33
2022-12-14T20:02:31.029Z,-3.32
2022-12-14T20:04:58.098Z,-3.27
2022-12-14T20:07:25.057Z,-3.24
2022-12-14T20:09:51.914Z,-3.22
2022-12-14T20:12:18.800Z,-3.18
2022-12-14T20:14:45.702Z,-3.20
2022-12-14T20:17:16.792Z,-3.19
2022-12-14T20:19:46.547Z,-3.23
2022-12-14T20:22:16.109Z,-3.25
2022-12-14T20:24:47.233Z,-3.23
2022-12-14T20:27:15.213Z,-3.29
2022-12-14T20:29:43.301Z,-3.30
2022-12-14T20:32:10.587Z,-3.32
2022-12-14T20:34:39.394Z,-3.33
2022-12-14T20:37:08.240Z,-3.29
2022-12-14T20:39:35.219Z,-3.21
2022-12-14T20:42:02.193Z,-3.20
2022-12-14T20:44:33.174Z,-3.24
2022-12-14T20:47:01.668Z,-3.24
2022-12-14T20:49:33.066Z,-3.25
2022-12-14T20:52:00.073Z,-3.22
2022-12-14T20:54:28.095Z,-3.20
2022-12-14T20:56:55.150Z,-3.22
2022-12-14T20:59:22.300Z,-3.24
2022-12-14T21:01:55.552Z,-3.25
2022-12-14T21:04:23.520Z,-3.24
2022-12-14T21:06:50.597Z,-3.25
2022-12-14T21:09:20.571Z,-3.24
2022-12-14T21:12:08.226Z,-3.22
2022-12-14T21:14:38.458Z,-3.21
2022-12-14T21:17:06.539Z,-3.20
2022-12-14T21:19:34.282Z,-3.35
2022-12-14T21:22:01.275Z,-3.37
2022-12-14T21:25:01.115Z,-3.27
2022-12-14T21:27:18.445Z,-3.27
2022-12-14T21:29:46.138Z,-3.31
2022-12-14T21:32:13.827Z,-3.33
2022-12-14T21:34:41.663Z,-3.36
2022-12-14T21:37:08.897Z,-3.32
2022-12-14T21:39:36.266Z,-3.36
2022-12-14T21:42:20.641Z,-3.36
2022-12-14T21:44:49.548Z,-3.34
2022-12-14T21:47:28.052Z,-3.39
2022-12-14T21:49:55.729Z,-3.37
2022-12-14T21:52:25.440Z,-3.45
2022-12-14T21:54:52.284Z,-3.47
2022-12-14T21:57:59.728Z,-3.46
2022-12-14T22:00:26.680Z,-3.43
2022-12-14T22:02:53.665Z,-3.44
2022-12-14T22:05:20.504Z,-3.47
2022-12-14T22:07:47.250Z,-3.53
2022-12-14T22:10:14.049Z,-3.57
2022-12-14T22:12:40.884Z,-3.69
2022-12-14T22:15:08.511Z,-3.75
2022-12-14T22:17:35.203Z,-3.83
2022-12-14T22:20:02.150Z,-3.86
2022-12-14T22:22:28.875Z,-3.87
2022-12-14T22:24:55.536Z,-3.82
2022-12-14T22:27:22.170Z,-3.84
2022-12-14T22:29:48.820Z,-3.80
2022-12-14T22:32:15.797Z,-3.78
2022-12-14T22:34:42.836Z,-3.79
2022-12-14T22:37:09.785Z,-3.84
2022-12-14T22:39:36.456Z,-3.91
2022-12-14T22:42:03.238Z,-3.89
2022-12-14T22:44:29.904Z,-3.88
2022-12-14T22:46:56.569Z,-3.93
2022-12-14T22:49:23.241Z,-3.88
2022-12-14T22:51:50.651Z,-3.87
2022-12-14T22:54:21.918Z,-3.86
2022-12-14T22:56:53.663Z,-3.87
2022-12-14T22:59:30.538Z,-3.88
2022-12-14T23:01:58.953Z,-3.79
2022-12-14T23:04:25.805Z,-3.77
2022-12-14T23:06:53.134Z,-3.72
2022-12-14T23:09:38.634Z,-3.71
2022-12-14T23:12:24.170Z,-3.66
2022-12-14T23:15:09.624Z,-3.74
2022-12-14T23:17:54.901Z,-3.80
2022-12-14T23:20:40.330Z,-3.93
2022-12-14T23:23:26.857Z,-4.09
2022-12-14T23:26:12.877Z,-4.12
2022-12-14T23:28:58.187Z,-4.20
2022-12-14T23:31:43.436Z,-4.17
2022-12-14T23:34:28.852Z,-4.06
2022-12-14T23:37:19.824Z,-3.99
2022-12-14T23:40:05.767Z,-3.89
2022-12-14T23:42:51.259Z,-3.93
2022-12-14T23:45:36.626Z,-3.88
2022-12-14T23:48:22.104Z,-3.90
2022-12-14T23:51:07.496Z,-3.83
2022-12-14T23:53:52.792Z,-3.90
2022-12-14T23:56:38.321Z,-3.88
2022-12-14T23:59:28.065Z,-3.87
